Impacts TAF Board INFO
FOR SITUATIONAL AWARENESS. NOT TO BE USED FOR FLIGHT PLANNING PURPOSES.
IDs:

KLGA - New York/La Guardia, NY, US

Issued at 0851 UTC 27 May 2017
Updated at 1001 UTC 27 May 2017
Potential Impact None Slight Moderate High
Time0951Z 27/10Z 27/11Z 27/12Z 27/13Z 27/14Z 27/15Z 27/16Z 27/17Z 27/18Z 27/19Z 27/20Z 27/21Z 27/22Z>>
Type OBS PRVL PRVL PRVL PRVL PRVL PRVL PRVL PRVL PRVL PRVL PRVL PRVL PRVL
VIS 10 >6 >6 >6 >6 >6 >6 >6 >6 >6 >6 >6 >6 >6
CIG -- -- -- -- -- -- 40 40 45 45 45 45 45 45
Cover SCT FEW FEW FEW FEW SCT BKN BKN BKN BKN BKN BKN BKN BKN
FltCat VFR VFR VFR VFR VFR VFR VFR VFR VFR VFR VFR VFR VFR VFR
WX -- -- -- -- -- -- -- -- -- -- -- -- -- --
WDir 300 300 300 300 300 330 330 330 300 300 300 200 200 170
WSpd 12 10 10 10 10 6 6 6 6 6 6 8 8 8
WGst -- -- -- -- -- -- -- -- -- -- -- -- -- --

Raw TAF
KLGA 270851Z 2709/2806 30010KT P6SM FEW250
  FM271400 33006KT P6SM SCT250
  FM271500 33006KT P6SM BKN040
  FM271700 30006KT P6SM BKN045
  FM272000 20008KT P6SM BKN045
  FM272200 17008KT P6SM BKN045
  FM280300 14004KT P6SM BKN045


Raw METAR
KLGA 270951Z 30012KT 10SM SCT075 17/12 A2985 RMK AO2 SLP108 T01670122
KLGA 270851Z 29012KT 10SM SCT045 17/12 A2983 RMK AO2 SLP103 T01720117 53008
KLGA 270751Z 29011KT 10SM CLR 17/12 A2982 RMK AO2 SLP097 T01720117
KLGA 270651Z 29009KT 10SM CLR 17/12 A2981 RMK AO2 SLP095 T01720117

METAR Board
Radar Display
Forecast Discussion

FOR SITUATIONAL AWARENESS. NOT TO BE USED FOR FLIGHT PLANNING PURPOSES.

Page loaded:  10:01 UTC  |   03:01 AM Pacific  |   04:01 AM Mountain  |   05:01 AM Central  |   06:01 AM Eastern

 

ADVISORIES

FORECASTS

FORECASTS

OBSERVATIONS

USER TOOLS

ABOUT US